sensor_id;sensor_type;location;lat;lon;timestamp;P1;durP1;ratioP1;P2;durP2;ratioP2
61254;SDS011;47128;47.530;8.584;2022-08-03T00:00:39;7.05;;;3.67;;
61254;SDS011;47128;47.530;8.584;2022-08-03T00:03:05;6.93;;;4.10;;
61254;SDS011;47128;47.530;8.584;2022-08-03T00:05:31;7.47;;;4.40;;
61254;SDS011;47128;47.530;8.584;2022-08-03T00:07:57;5.45;;;3.80;;
61254;SDS011;47128;47.530;8.584;2022-08-03T00:10:24;7.18;;;4.18;;
61254;SDS011;47128;47.530;8.584;2022-08-03T00:12:50;6.10;;;4.00;;
61254;SDS011;47128;47.530;8.584;2022-08-03T00:15:16;6.63;;;4.30;;
61254;SDS011;47128;47.530;8.584;2022-08-03T00:17:43;6.70;;;4.25;;
61254;SDS011;47128;47.530;8.584;2022-08-03T00:20:09;6.07;;;4.18;;
61254;SDS011;47128;47.530;8.584;2022-08-03T00:22:35;6.43;;;4.10;;
61254;SDS011;47128;47.530;8.584;2022-08-03T00:25:00;7.50;;;4.82;;
61254;SDS011;47128;47.530;8.584;2022-08-03T00:27:26;7.65;;;4.65;;
61254;SDS011;47128;47.530;8.584;2022-08-03T00:29:51;8.93;;;4.43;;
61254;SDS011;47128;47.530;8.584;2022-08-03T00:32:17;5.75;;;4.03;;
61254;SDS011;47128;47.530;8.584;2022-08-03T00:34:43;8.32;;;4.65;;
61254;SDS011;47128;47.530;8.584;2022-08-03T00:37:09;7.15;;;4.30;;
61254;SDS011;47128;47.530;8.584;2022-08-03T00:39:34;10.10;;;3.90;;
61254;SDS011;47128;47.530;8.584;2022-08-03T00:42:03;8.02;;;4.03;;
61254;SDS011;47128;47.530;8.584;2022-08-03T00:44:29;5.35;;;3.67;;
61254;SDS011;47128;47.530;8.584;2022-08-03T00:46:55;6.05;;;3.70;;
61254;SDS011;47128;47.530;8.584;2022-08-03T00:49:21;7.35;;;3.78;;
61254;SDS011;47128;47.530;8.584;2022-08-03T00:51:47;4.65;;;3.00;;
61254;SDS011;47128;47.530;8.584;2022-08-03T00:54:13;6.82;;;3.60;;
61254;SDS011;47128;47.530;8.584;2022-08-03T00:56:39;5.15;;;3.30;;
61254;SDS011;47128;47.530;8.584;2022-08-03T00:59:06;6.13;;;3.88;;
61254;SDS011;47128;47.530;8.584;2022-08-03T01:01:34;10.52;;;3.40;;
61254;SDS011;47128;47.530;8.584;2022-08-03T01:04:00;7.20;;;3.55;;
61254;SDS011;47128;47.530;8.584;2022-08-03T01:12:37;4.75;;;3.40;;
61254;SDS011;47128;47.530;8.584;2022-08-03T01:15:03;5.43;;;3.58;;
61254;SDS011;47128;47.530;8.584;2022-08-03T01:18:07;6.53;;;3.65;;
61254;SDS011;47128;47.530;8.584;2022-08-03T01:20:39;5.15;;;3.35;;
61254;SDS011;47128;47.530;8.584;2022-08-03T01:23:21;4.88;;;3.30;;
61254;SDS011;47128;47.530;8.584;2022-08-03T01:26:05;4.93;;;3.33;;
61254;SDS011;47128;47.530;8.584;2022-08-03T01:34:07;5.97;;;3.20;;
61254;SDS011;47128;47.530;8.584;2022-08-03T01:36:37;5.47;;;3.20;;
61254;SDS011;47128;47.530;8.584;2022-08-03T01:39:07;4.22;;;3.28;;
61254;SDS011;47128;47.530;8.584;2022-08-03T01:41:35;4.00;;;3.28;;
61254;SDS011;47128;47.530;8.584;2022-08-03T01:44:07;5.55;;;3.40;;
61254;SDS011;47128;47.530;8.584;2022-08-03T01:46:35;6.95;;;3.50;;
61254;SDS011;47128;47.530;8.584;2022-08-03T01:49:02;4.47;;;3.10;;
61254;SDS011;47128;47.530;8.584;2022-08-03T01:51:33;4.30;;;2.95;;
61254;SDS011;47128;47.530;8.584;2022-08-03T01:54:00;4.82;;;3.20;;
61254;SDS011;47128;47.530;8.584;2022-08-03T01:56:28;3.88;;;3.10;;
61254;SDS011;47128;47.530;8.584;2022-08-03T01:58:55;3.97;;;2.92;;
61254;SDS011;47128;47.530;8.584;2022-08-03T02:01:24;6.22;;;3.25;;
61254;SDS011;47128;47.530;8.584;2022-08-03T02:03:52;9.00;;;3.53;;
61254;SDS011;47128;47.530;8.584;2022-08-03T02:06:21;5.20;;;3.47;;
61254;SDS011;47128;47.530;8.584;2022-08-03T02:08:48;6.22;;;3.13;;
61254;SDS011;47128;47.530;8.584;2022-08-03T02:11:15;8.07;;;3.38;;
61254;SDS011;47128;47.530;8.584;2022-08-03T02:13:41;3.35;;;2.80;;
61254;SDS011;47128;47.530;8.584;2022-08-03T02:16:10;6.50;;;3.08;;
61254;SDS011;47128;47.530;8.584;2022-08-03T02:18:38;5.82;;;3.05;;
61254;SDS011;47128;47.530;8.584;2022-08-03T02:21:05;4.43;;;2.97;;
61254;SDS011;47128;47.530;8.584;2022-08-03T02:23:34;8.30;;;3.97;;
61254;SDS011;47128;47.530;8.584;2022-08-03T02:26:01;9.07;;;3.75;;
61254;SDS011;47128;47.530;8.584;2022-08-03T02:28:31;5.97;;;3.60;;
61254;SDS011;47128;47.530;8.584;2022-08-03T02:31:01;4.57;;;3.08;;
61254;SDS011;47128;47.530;8.584;2022-08-03T02:33:30;7.85;;;3.45;;
61254;SDS011;47128;47.530;8.584;2022-08-03T02:36:00;4.03;;;3.20;;
61254;SDS011;47128;47.530;8.584;2022-08-03T02:38:36;5.13;;;3.17;;
61254;SDS011;47128;47.530;8.584;2022-08-03T02:41:12;4.78;;;3.38;;
61254;SDS011;47128;47.530;8.584;2022-08-03T02:43:44;4.68;;;3.60;;
61254;SDS011;47128;47.530;8.584;2022-08-03T02:46:13;4.65;;;3.45;;
61254;SDS011;47128;47.530;8.584;2022-08-03T02:48:43;4.05;;;3.28;;
61254;SDS011;47128;47.530;8.584;2022-08-03T02:51:11;9.68;;;3.53;;
61254;SDS011;47128;47.530;8.584;2022-08-03T02:53:37;5.25;;;3.60;;
61254;SDS011;47128;47.530;8.584;2022-08-03T02:56:04;5.60;;;3.40;;
61254;SDS011;47128;47.530;8.584;2022-08-03T02:58:32;6.07;;;3.67;;
61254;SDS011;47128;47.530;8.584;2022-08-03T03:00:58;4.82;;;3.35;;
61254;SDS011;47128;47.530;8.584;2022-08-03T03:03:25;5.60;;;3.60;;
61254;SDS011;47128;47.530;8.584;2022-08-03T03:05:51;4.45;;;3.63;;
61254;SDS011;47128;47.530;8.584;2022-08-03T03:08:18;8.70;;;3.67;;
61254;SDS011;47128;47.530;8.584;2022-08-03T03:10:45;6.00;;;3.70;;
61254;SDS011;47128;47.530;8.584;2022-08-03T03:13:13;5.03;;;3.40;;
61254;SDS011;47128;47.530;8.584;2022-08-03T03:15:39;6.18;;;3.55;;
61254;SDS011;47128;47.530;8.584;2022-08-03T03:18:07;6.90;;;4.10;;
61254;SDS011;47128;47.530;8.584;2022-08-03T03:20:34;6.28;;;3.42;;
61254;SDS011;47128;47.530;8.584;2022-08-03T03:23:03;5.18;;;3.90;;
61254;SDS011;47128;47.530;8.584;2022-08-03T03:25:30;6.68;;;3.92;;
61254;SDS011;47128;47.530;8.584;2022-08-03T03:27:57;5.80;;;3.72;;
61254;SDS011;47128;47.530;8.584;2022-08-03T03:30:24;7.10;;;3.90;;
61254;SDS011;47128;47.530;8.584;2022-08-03T03:32:50;6.07;;;3.70;;
61254;SDS011;47128;47.530;8.584;2022-08-03T03:35:16;5.00;;;3.42;;
61254;SDS011;47128;47.530;8.584;2022-08-03T03:37:42;5.40;;;3.25;;
61254;SDS011;47128;47.530;8.584;2022-08-03T03:40:07;5.07;;;3.47;;
61254;SDS011;47128;47.530;8.584;2022-08-03T03:42:34;4.70;;;3.13;;
61254;SDS011;47128;47.530;8.584;2022-08-03T03:45:03;6.15;;;3.42;;
61254;SDS011;47128;47.530;8.584;2022-08-03T03:47:30;6.75;;;3.80;;
61254;SDS011;47128;47.530;8.584;2022-08-03T03:49:57;5.10;;;3.88;;
61254;SDS011;47128;47.530;8.584;2022-08-03T03:52:23;6.68;;;3.97;;
61254;SDS011;47128;47.530;8.584;2022-08-03T03:54:49;5.07;;;3.63;;
61254;SDS011;47128;47.530;8.584;2022-08-03T03:57:14;6.32;;;3.55;;
61254;SDS011;47128;47.530;8.584;2022-08-03T03:59:40;6.50;;;3.80;;
61254;SDS011;47128;47.530;8.584;2022-08-03T04:02:07;6.50;;;3.70;;
61254;SDS011;47128;47.530;8.584;2022-08-03T04:04:34;4.82;;;3.85;;
61254;SDS011;47128;47.530;8.584;2022-08-03T04:07:19;6.07;;;3.83;;
61254;SDS011;47128;47.530;8.584;2022-08-03T04:10:10;5.78;;;4.07;;
61254;SDS011;47128;47.530;8.584;2022-08-03T04:12:58;6.22;;;3.47;;
61254;SDS011;47128;47.530;8.584;2022-08-03T04:15:26;4.82;;;3.50;;
61254;SDS011;47128;47.530;8.584;2022-08-03T04:17:54;5.30;;;3.20;;
61254;SDS011;47128;47.530;8.584;2022-08-03T04:20:22;5.50;;;3.53;;
61254;SDS011;47128;47.530;8.584;2022-08-03T04:22:54;5.18;;;3.47;;
61254;SDS011;47128;47.530;8.584;2022-08-03T04:25:24;5.97;;;3.80;;
61254;SDS011;47128;47.530;8.584;2022-08-03T04:27:54;5.95;;;3.70;;
61254;SDS011;47128;47.530;8.584;2022-08-03T04:30:23;7.55;;;4.45;;
61254;SDS011;47128;47.530;8.584;2022-08-03T04:32:51;6.05;;;3.80;;
61254;SDS011;47128;47.530;8.584;2022-08-03T04:35:19;7.35;;;3.55;;
61254;SDS011;47128;47.530;8.584;2022-08-03T04:37:48;5.93;;;3.75;;
61254;SDS011;47128;47.530;8.584;2022-08-03T04:43:11;4.32;;;3.10;;
61254;SDS011;47128;47.530;8.584;2022-08-03T04:45:39;8.25;;;3.67;;
61254;SDS011;47128;47.530;8.584;2022-08-03T04:48:05;7.78;;;4.10;;
61254;SDS011;47128;47.530;8.584;2022-08-03T04:50:31;6.00;;;4.25;;
61254;SDS011;47128;47.530;8.584;2022-08-03T04:52:58;7.60;;;3.65;;
61254;SDS011;47128;47.530;8.584;2022-08-03T04:55:27;7.13;;;3.88;;
61254;SDS011;47128;47.530;8.584;2022-08-03T04:57:54;6.05;;;3.65;;
61254;SDS011;47128;47.530;8.584;2022-08-03T05:00:20;10.77;;;3.80;;
61254;SDS011;47128;47.530;8.584;2022-08-03T05:02:46;7.95;;;4.32;;
61254;SDS011;47128;47.530;8.584;2022-08-03T05:05:12;6.65;;;3.63;;
61254;SDS011;47128;47.530;8.584;2022-08-03T05:07:39;5.05;;;4.05;;
61254;SDS011;47128;47.530;8.584;2022-08-03T05:10:06;7.35;;;4.50;;
61254;SDS011;47128;47.530;8.584;2022-08-03T05:12:33;9.25;;;4.00;;
61254;SDS011;47128;47.530;8.584;2022-08-03T05:14:59;5.43;;;4.03;;
61254;SDS011;47128;47.530;8.584;2022-08-03T05:17:25;8.57;;;3.60;;
61254;SDS011;47128;47.530;8.584;2022-08-03T05:19:51;8.10;;;4.22;;
61254;SDS011;47128;47.530;8.584;2022-08-03T05:22:20;6.95;;;4.97;;
61254;SDS011;47128;47.530;8.584;2022-08-03T05:24:46;7.43;;;3.90;;
61254;SDS011;47128;47.530;8.584;2022-08-03T05:27:11;6.05;;;3.90;;
61254;SDS011;47128;47.530;8.584;2022-08-03T05:29:43;4.90;;;3.83;;
61254;SDS011;47128;47.530;8.584;2022-08-03T05:32:13;6.78;;;4.00;;
61254;SDS011;47128;47.530;8.584;2022-08-03T05:34:39;5.13;;;3.90;;
61254;SDS011;47128;47.530;8.584;2022-08-03T05:37:05;4.90;;;3.55;;
61254;SDS011;47128;47.530;8.584;2022-08-03T05:39:33;4.97;;;3.65;;
61254;SDS011;47128;47.530;8.584;2022-08-03T05:41:59;5.80;;;3.58;;
61254;SDS011;47128;47.530;8.584;2022-08-03T05:44:25;4.88;;;3.58;;
61254;SDS011;47128;47.530;8.584;2022-08-03T05:46:51;6.30;;;3.33;;
61254;SDS011;47128;47.530;8.584;2022-08-03T05:49:17;5.47;;;3.47;;
61254;SDS011;47128;47.530;8.584;2022-08-03T05:51:43;5.80;;;3.50;;
61254;SDS011;47128;47.530;8.584;2022-08-03T05:54:09;4.60;;;3.47;;
61254;SDS011;47128;47.530;8.584;2022-08-03T05:56:35;6.57;;;3.95;;
61254;SDS011;47128;47.530;8.584;2022-08-03T05:59:01;6.13;;;3.75;;
61254;SDS011;47128;47.530;8.584;2022-08-03T06:01:27;7.20;;;3.88;;
61254;SDS011;47128;47.530;8.584;2022-08-03T06:03:56;5.75;;;3.63;;
61254;SDS011;47128;47.530;8.584;2022-08-03T06:06:22;4.97;;;3.80;;
61254;SDS011;47128;47.530;8.584;2022-08-03T06:08:50;6.93;;;3.38;;
61254;SDS011;47128;47.530;8.584;2022-08-03T06:11:16;5.55;;;3.40;;
61254;SDS011;47128;47.530;8.584;2022-08-03T06:13:43;4.10;;;3.40;;
61254;SDS011;47128;47.530;8.584;2022-08-03T06:16:10;9.60;;;3.30;;
61254;SDS011;47128;47.530;8.584;2022-08-03T06:18:41;5.38;;;2.85;;
61254;SDS011;47128;47.530;8.584;2022-08-03T06:21:06;5.25;;;3.53;;
61254;SDS011;47128;47.530;8.584;2022-08-03T06:23:34;5.53;;;3.33;;
61254;SDS011;47128;47.530;8.584;2022-08-03T06:26:02;4.05;;;3.35;;
61254;SDS011;47128;47.530;8.584;2022-08-03T06:28:30;5.13;;;3.65;;
61254;SDS011;47128;47.530;8.584;2022-08-03T06:30:57;3.60;;;2.90;;
61254;SDS011;47128;47.530;8.584;2022-08-03T06:33:24;3.50;;;3.20;;
61254;SDS011;47128;47.530;8.584;2022-08-03T06:35:50;4.55;;;3.35;;
61254;SDS011;47128;47.530;8.584;2022-08-03T06:38:18;5.78;;;3.50;;
61254;SDS011;47128;47.530;8.584;2022-08-03T06:40:44;4.78;;;3.20;;
61254;SDS011;47128;47.530;8.584;2022-08-03T06:43:09;4.22;;;3.15;;
61254;SDS011;47128;47.530;8.584;2022-08-03T06:45:36;4.93;;;3.40;;
61254;SDS011;47128;47.530;8.584;2022-08-03T06:48:06;4.53;;;3.47;;
61254;SDS011;47128;47.530;8.584;2022-08-03T06:50:36;4.40;;;3.22;;
61254;SDS011;47128;47.530;8.584;2022-08-03T06:53:04;3.72;;;3.25;;
61254;SDS011;47128;47.530;8.584;2022-08-03T06:55:30;4.97;;;3.03;;
61254;SDS011;47128;47.530;8.584;2022-08-03T06:57:59;4.72;;;3.20;;
61254;SDS011;47128;47.530;8.584;2022-08-03T07:00:25;5.18;;;2.90;;
61254;SDS011;47128;47.530;8.584;2022-08-03T07:02:52;5.47;;;3.30;;
61254;SDS011;47128;47.530;8.584;2022-08-03T07:05:20;3.63;;;2.72;;
61254;SDS011;47128;47.530;8.584;2022-08-03T07:07:47;3.28;;;2.88;;
61254;SDS011;47128;47.530;8.584;2022-08-03T07:10:13;4.50;;;3.15;;
61254;SDS011;47128;47.530;8.584;2022-08-03T07:12:45;4.57;;;3.03;;
61254;SDS011;47128;47.530;8.584;2022-08-03T07:15:11;4.03;;;3.00;;
61254;SDS011;47128;47.530;8.584;2022-08-03T07:17:37;3.45;;;3.13;;
61254;SDS011;47128;47.530;8.584;2022-08-03T07:22:36;6.68;;;3.33;;
61254;SDS011;47128;47.530;8.584;2022-08-03T07:25:05;4.82;;;3.63;;
61254;SDS011;47128;47.530;8.584;2022-08-03T07:30:38;8.63;;;3.58;;
61254;SDS011;47128;47.530;8.584;2022-08-03T07:33:26;5.55;;;3.20;;
61254;SDS011;47128;47.530;8.584;2022-08-03T07:36:00;6.35;;;3.25;;
61254;SDS011;47128;47.530;8.584;2022-08-03T07:38:30;5.97;;;3.33;;
61254;SDS011;47128;47.530;8.584;2022-08-03T07:41:04;5.10;;;3.58;;
61254;SDS011;47128;47.530;8.584;2022-08-03T07:43:30;3.53;;;3.22;;
61254;SDS011;47128;47.530;8.584;2022-08-03T07:45:56;4.80;;;3.25;;
61254;SDS011;47128;47.530;8.584;2022-08-03T07:48:23;4.18;;;3.00;;
61254;SDS011;47128;47.530;8.584;2022-08-03T07:50:48;5.78;;;3.20;;
61254;SDS011;47128;47.530;8.584;2022-08-03T07:53:22;3.20;;;2.70;;
61254;SDS011;47128;47.530;8.584;2022-08-03T07:55:49;3.60;;;3.30;;
61254;SDS011;47128;47.530;8.584;2022-08-03T07:58:16;4.53;;;3.60;;
61254;SDS011;47128;47.530;8.584;2022-08-03T08:00:47;6.05;;;2.90;;
61254;SDS011;47128;47.530;8.584;2022-08-03T08:03:13;4.93;;;3.28;;
61254;SDS011;47128;47.530;8.584;2022-08-03T08:05:42;6.63;;;4.05;;
61254;SDS011;47128;47.530;8.584;2022-08-03T08:08:08;4.93;;;3.53;;
61254;SDS011;47128;47.530;8.584;2022-08-03T08:10:34;3.97;;;3.15;;
61254;SDS011;47128;47.530;8.584;2022-08-03T08:13:07;4.57;;;3.40;;
61254;SDS011;47128;47.530;8.584;2022-08-03T08:15:36;5.85;;;3.58;;
61254;SDS011;47128;47.530;8.584;2022-08-03T08:18:07;7.07;;;3.65;;
61254;SDS011;47128;47.530;8.584;2022-08-03T08:20:43;6.57;;;3.45;;
61254;SDS011;47128;47.530;8.584;2022-08-03T08:28:18;4.60;;;3.30;;
61254;SDS011;47128;47.530;8.584;2022-08-03T08:30:51;7.78;;;3.33;;
61254;SDS011;47128;47.530;8.584;2022-08-03T08:33:18;4.47;;;3.40;;
61254;SDS011;47128;47.530;8.584;2022-08-03T08:35:45;6.70;;;3.38;;
61254;SDS011;47128;47.530;8.584;2022-08-03T08:38:16;4.18;;;3.10;;
61254;SDS011;47128;47.530;8.584;2022-08-03T08:40:48;6.43;;;3.38;;
61254;SDS011;47128;47.530;8.584;2022-08-03T08:43:14;5.47;;;3.23;;
61254;SDS011;47128;47.530;8.584;2022-08-03T08:45:48;5.90;;;3.75;;
61254;SDS011;47128;47.530;8.584;2022-08-03T08:48:25;5.43;;;3.28;;
61254;SDS011;47128;47.530;8.584;2022-08-03T08:50:59;4.30;;;3.40;;
61254;SDS011;47128;47.530;8.584;2022-08-03T08:53:28;5.22;;;3.50;;
61254;SDS011;47128;47.530;8.584;2022-08-03T08:58:30;4.70;;;3.47;;
61254;SDS011;47128;47.530;8.584;2022-08-03T09:01:03;3.95;;;3.45;;
61254;SDS011;47128;47.530;8.584;2022-08-03T09:03:32;5.05;;;3.70;;
61254;SDS011;47128;47.530;8.584;2022-08-03T09:06:20;4.78;;;3.50;;
61254;SDS011;47128;47.530;8.584;2022-08-03T09:08:48;4.90;;;3.42;;
61254;SDS011;47128;47.530;8.584;2022-08-03T09:11:14;5.18;;;3.10;;
61254;SDS011;47128;47.530;8.584;2022-08-03T09:13:40;5.00;;;3.60;;
61254;SDS011;47128;47.530;8.584;2022-08-03T09:16:14;5.47;;;3.42;;
61254;SDS011;47128;47.530;8.584;2022-08-03T09:18:43;5.95;;;3.63;;
61254;SDS011;47128;47.530;8.584;2022-08-03T09:26:23;5.10;;;3.20;;
61254;SDS011;47128;47.530;8.584;2022-08-03T09:28:57;6.03;;;3.70;;
61254;SDS011;47128;47.530;8.584;2022-08-03T09:31:34;5.10;;;3.15;;
61254;SDS011;47128;47.530;8.584;2022-08-03T09:34:04;7.22;;;3.25;;
61254;SDS011;47128;47.530;8.584;2022-08-03T09:36:35;35.10;;;13.68;;
61254;SDS011;47128;47.530;8.584;2022-08-03T09:39:03;5.63;;;3.80;;
61254;SDS011;47128;47.530;8.584;2022-08-03T09:41:41;5.45;;;3.53;;
61254;SDS011;47128;47.530;8.584;2022-08-03T09:44:15;5.22;;;3.45;;
61254;SDS011;47128;47.530;8.584;2022-08-03T09:46:47;5.03;;;3.22;;
61254;SDS011;47128;47.530;8.584;2022-08-03T09:49:19;6.43;;;3.58;;
61254;SDS011;47128;47.530;8.584;2022-08-03T09:51:45;8.48;;;3.90;;
61254;SDS011;47128;47.530;8.584;2022-08-03T09:54:11;4.50;;;3.17;;
61254;SDS011;47128;47.530;8.584;2022-08-03T09:56:44;3.88;;;3.40;;
61254;SDS011;47128;47.530;8.584;2022-08-03T09:59:22;5.35;;;3.42;;
61254;SDS011;47128;47.530;8.584;2022-08-03T10:01:51;6.85;;;3.22;;
61254;SDS011;47128;47.530;8.584;2022-08-03T10:04:22;4.55;;;3.20;;
61254;SDS011;47128;47.530;8.584;2022-08-03T10:07:07;3.53;;;3.05;;
61254;SDS011;47128;47.530;8.584;2022-08-03T10:09:35;3.70;;;3.35;;
61254;SDS011;47128;47.530;8.584;2022-08-03T10:12:07;4.70;;;3.20;;
61254;SDS011;47128;47.530;8.584;2022-08-03T10:14:38;4.85;;;2.97;;
61254;SDS011;47128;47.530;8.584;2022-08-03T10:17:06;4.45;;;2.88;;
61254;SDS011;47128;47.530;8.584;2022-08-03T10:19:35;4.82;;;3.40;;
61254;SDS011;47128;47.530;8.584;2022-08-03T10:22:13;4.43;;;2.95;;
61254;SDS011;47128;47.530;8.584;2022-08-03T10:24:47;4.68;;;2.92;;
61254;SDS011;47128;47.530;8.584;2022-08-03T10:27:14;3.50;;;2.92;;
61254;SDS011;47128;47.530;8.584;2022-08-03T10:29:46;4.65;;;3.08;;
61254;SDS011;47128;47.530;8.584;2022-08-03T10:32:20;5.30;;;2.50;;
61254;SDS011;47128;47.530;8.584;2022-08-03T10:34:51;4.15;;;2.80;;
61254;SDS011;47128;47.530;8.584;2022-08-03T10:37:26;3.40;;;2.60;;
61254;SDS011;47128;47.530;8.584;2022-08-03T10:39:55;3.25;;;2.70;;
61254;SDS011;47128;47.530;8.584;2022-08-03T10:42:24;3.53;;;2.80;;
61254;SDS011;47128;47.530;8.584;2022-08-03T10:44:54;4.22;;;2.70;;
61254;SDS011;47128;47.530;8.584;2022-08-03T10:47:27;2.92;;;2.60;;
61254;SDS011;47128;47.530;8.584;2022-08-03T10:49:54;3.53;;;2.67;;
61254;SDS011;47128;47.530;8.584;2022-08-03T10:53:05;3.03;;;2.65;;
61254;SDS011;47128;47.530;8.584;2022-08-03T10:55:37;3.03;;;2.60;;
61254;SDS011;47128;47.530;8.584;2022-08-03T11:01:02;3.42;;;2.63;;
61254;SDS011;47128;47.530;8.584;2022-08-03T11:06:24;2.90;;;2.60;;
61254;SDS011;47128;47.530;8.584;2022-08-03T11:11:34;3.50;;;2.25;;
61254;SDS011;47128;47.530;8.584;2022-08-03T11:14:08;4.65;;;2.55;;
61254;SDS011;47128;47.530;8.584;2022-08-03T11:16:42;7.40;;;2.90;;
61254;SDS011;47128;47.530;8.584;2022-08-03T11:19:13;6.50;;;2.75;;
61254;SDS011;47128;47.530;8.584;2022-08-03T11:29:57;3.33;;;2.25;;
61254;SDS011;47128;47.530;8.584;2022-08-03T11:35:13;1.95;;;1.85;;
61254;SDS011;47128;47.530;8.584;2022-08-03T11:40:44;4.70;;;2.25;;
61254;SDS011;47128;47.530;8.584;2022-08-03T11:45:58;3.03;;;2.20;;
61254;SDS011;47128;47.530;8.584;2022-08-03T11:48:37;3.63;;;2.15;;
61254;SDS011;47128;47.530;8.584;2022-08-03T11:51:05;2.42;;;2.20;;
61254;SDS011;47128;47.530;8.584;2022-08-03T11:53:32;4.53;;;2.60;;
61254;SDS011;47128;47.530;8.584;2022-08-03T11:55:59;2.30;;;2.10;;
61254;SDS011;47128;47.530;8.584;2022-08-03T11:58:27;2.47;;;2.28;;
61254;SDS011;47128;47.530;8.584;2022-08-03T12:01:02;2.33;;;2.13;;
61254;SDS011;47128;47.530;8.584;2022-08-03T12:03:31;3.38;;;2.50;;
61254;SDS011;47128;47.530;8.584;2022-08-03T12:05:58;2.22;;;1.65;;
61254;SDS011;47128;47.530;8.584;2022-08-03T12:11:00;3.58;;;2.10;;
61254;SDS011;47128;47.530;8.584;2022-08-03T12:13:34;2.85;;;2.03;;
61254;SDS011;47128;47.530;8.584;2022-08-03T12:16:19;2.47;;;2.05;;
61254;SDS011;47128;47.530;8.584;2022-08-03T12:18:53;2.55;;;2.05;;
61254;SDS011;47128;47.530;8.584;2022-08-03T12:21:32;4.68;;;2.28;;
61254;SDS011;47128;47.530;8.584;2022-08-03T12:23:58;2.75;;;1.90;;
61254;SDS011;47128;47.530;8.584;2022-08-03T12:26:29;5.20;;;2.58;;
61254;SDS011;47128;47.530;8.584;2022-08-03T12:29:06;2.75;;;2.28;;
61254;SDS011;47128;47.530;8.584;2022-08-03T12:31:40;2.33;;;1.90;;
61254;SDS011;47128;47.530;8.584;2022-08-03T12:34:05;4.30;;;2.13;;
61254;SDS011;47128;47.530;8.584;2022-08-03T12:36:34;2.20;;;2.00;;
61254;SDS011;47128;47.530;8.584;2022-08-03T12:39:06;3.20;;;1.98;;
61254;SDS011;47128;47.530;8.584;2022-08-03T12:41:36;3.30;;;2.08;;
61254;SDS011;47128;47.530;8.584;2022-08-03T12:44:15;1.85;;;1.70;;
61254;SDS011;47128;47.530;8.584;2022-08-03T12:46:40;4.25;;;2.30;;
61254;SDS011;47128;47.530;8.584;2022-08-03T12:49:14;2.92;;;1.90;;
61254;SDS011;47128;47.530;8.584;2022-08-03T12:54:16;2.22;;;1.77;;
61254;SDS011;47128;47.530;8.584;2022-08-03T12:59:33;2.50;;;2.03;;
61254;SDS011;47128;47.530;8.584;2022-08-03T13:02:16;2.13;;;1.75;;
61254;SDS011;47128;47.530;8.584;2022-08-03T13:04:45;2.20;;;2.00;;
61254;SDS011;47128;47.530;8.584;2022-08-03T13:07:11;4.65;;;2.40;;
61254;SDS011;47128;47.530;8.584;2022-08-03T13:22:55;3.20;;;1.98;;
61254;SDS011;47128;47.530;8.584;2022-08-03T13:27:49;3.47;;;2.08;;
61254;SDS011;47128;47.530;8.584;2022-08-03T13:30:17;2.22;;;1.90;;
61254;SDS011;47128;47.530;8.584;2022-08-03T13:32:45;2.35;;;1.70;;
61254;SDS011;47128;47.530;8.584;2022-08-03T13:35:13;2.33;;;2.13;;
61254;SDS011;47128;47.530;8.584;2022-08-03T13:37:39;4.28;;;2.33;;
61254;SDS011;47128;47.530;8.584;2022-08-03T13:42:42;3.47;;;1.83;;
61254;SDS011;47128;47.530;8.584;2022-08-03T13:45:08;3.05;;;1.90;;
61254;SDS011;47128;47.530;8.584;2022-08-03T13:47:35;5.03;;;2.00;;
61254;SDS011;47128;47.530;8.584;2022-08-03T13:50:01;2.60;;;2.00;;
61254;SDS011;47128;47.530;8.584;2022-08-03T13:52:31;3.75;;;2.00;;
61254;SDS011;47128;47.530;8.584;2022-08-03T13:54:57;5.05;;;1.90;;
61254;SDS011;47128;47.530;8.584;2022-08-03T13:57:29;2.42;;;1.90;;
61254;SDS011;47128;47.530;8.584;2022-08-03T13:59:55;2.53;;;1.92;;
61254;SDS011;47128;47.530;8.584;2022-08-03T14:02:21;3.33;;;2.22;;
61254;SDS011;47128;47.530;8.584;2022-08-03T14:04:46;4.35;;;1.90;;
61254;SDS011;47128;47.530;8.584;2022-08-03T14:07:12;2.22;;;1.80;;
61254;SDS011;47128;47.530;8.584;2022-08-03T14:09:44;1.70;;;1.60;;
61254;SDS011;47128;47.530;8.584;2022-08-03T14:14:38;5.07;;;1.95;;
61254;SDS011;47128;47.530;8.584;2022-08-03T14:17:03;3.28;;;2.00;;
61254;SDS011;47128;47.530;8.584;2022-08-03T14:19:31;1.80;;;1.70;;
61254;SDS011;47128;47.530;8.584;2022-08-03T14:21:57;3.10;;;1.95;;
61254;SDS011;47128;47.530;8.584;2022-08-03T14:24:24;2.28;;;1.70;;
61254;SDS011;47128;47.530;8.584;2022-08-03T14:26:53;2.92;;;1.92;;
61254;SDS011;47128;47.530;8.584;2022-08-03T14:29:23;7.45;;;1.92;;
61254;SDS011;47128;47.530;8.584;2022-08-03T14:31:55;2.97;;;2.10;;
61254;SDS011;47128;47.530;8.584;2022-08-03T14:34:21;2.10;;;1.88;;
61254;SDS011;47128;47.530;8.584;2022-08-03T14:36:47;9.25;;;2.40;;
61254;SDS011;47128;47.530;8.584;2022-08-03T14:39:12;2.97;;;2.22;;
61254;SDS011;47128;47.530;8.584;2022-08-03T14:41:40;2.58;;;1.92;;
61254;SDS011;47128;47.530;8.584;2022-08-03T14:44:05;2.45;;;2.08;;
61254;SDS011;47128;47.530;8.584;2022-08-03T14:46:31;2.95;;;2.03;;
61254;SDS011;47128;47.530;8.584;2022-08-03T14:48:57;3.38;;;1.90;;
61254;SDS011;47128;47.530;8.584;2022-08-03T14:51:23;2.72;;;1.75;;
61254;SDS011;47128;47.530;8.584;2022-08-03T14:53:49;6.60;;;1.98;;
61254;SDS011;47128;47.530;8.584;2022-08-03T14:56:14;2.80;;;1.85;;
61254;SDS011;47128;47.530;8.584;2022-08-03T14:58:40;2.28;;;1.85;;
61254;SDS011;47128;47.530;8.584;2022-08-03T15:01:06;4.93;;;2.15;;
61254;SDS011;47128;47.530;8.584;2022-08-03T15:03:32;2.22;;;2.03;;
61254;SDS011;47128;47.530;8.584;2022-08-03T15:05:57;4.45;;;1.70;;
61254;SDS011;47128;47.530;8.584;2022-08-03T15:08:28;4.07;;;2.05;;
61254;SDS011;47128;47.530;8.584;2022-08-03T15:10:54;3.40;;;1.70;;
61254;SDS011;47128;47.530;8.584;2022-08-03T15:13:20;3.65;;;1.77;;
61254;SDS011;47128;47.530;8.584;2022-08-03T15:15:50;2.72;;;1.90;;
61254;SDS011;47128;47.530;8.584;2022-08-03T15:18:16;2.45;;;1.60;;
61254;SDS011;47128;47.530;8.584;2022-08-03T15:20:42;2.03;;;1.70;;
61254;SDS011;47128;47.530;8.584;2022-08-03T15:23:08;2.22;;;1.52;;
61254;SDS011;47128;47.530;8.584;2022-08-03T15:25:34;2.80;;;1.50;;
61254;SDS011;47128;47.530;8.584;2022-08-03T15:27:59;3.03;;;1.55;;
61254;SDS011;47128;47.530;8.584;2022-08-03T15:30:25;1.77;;;1.50;;
61254;SDS011;47128;47.530;8.584;2022-08-03T15:32:51;2.42;;;1.70;;
61254;SDS011;47128;47.530;8.584;2022-08-03T15:35:16;1.50;;;1.40;;
61254;SDS011;47128;47.530;8.584;2022-08-03T15:37:45;2.42;;;1.88;;
61254;SDS011;47128;47.530;8.584;2022-08-03T15:40:10;1.40;;;1.30;;
61254;SDS011;47128;47.530;8.584;2022-08-03T15:42:36;2.45;;;1.15;;
61254;SDS011;47128;47.530;8.584;2022-08-03T15:45:02;2.38;;;1.20;;
61254;SDS011;47128;47.530;8.584;2022-08-03T15:47:28;1.45;;;1.25;;
61254;SDS011;47128;47.530;8.584;2022-08-03T15:49:53;2.42;;;1.70;;
61254;SDS011;47128;47.530;8.584;2022-08-03T15:52:19;2.53;;;1.52;;
61254;SDS011;47128;47.530;8.584;2022-08-03T15:54:45;3.17;;;1.17;;
61254;SDS011;47128;47.530;8.584;2022-08-03T15:57:10;2.60;;;1.33;;
61254;SDS011;47128;47.530;8.584;2022-08-03T15:59:36;1.40;;;1.23;;
61254;SDS011;47128;47.530;8.584;2022-08-03T16:02:01;4.60;;;1.65;;
61254;SDS011;47128;47.530;8.584;2022-08-03T16:04:27;1.50;;;1.20;;
61254;SDS011;47128;47.530;8.584;2022-08-03T16:06:53;4.55;;;1.60;;
61254;SDS011;47128;47.530;8.584;2022-08-03T16:09:18;2.55;;;1.20;;
61254;SDS011;47128;47.530;8.584;2022-08-03T16:11:44;1.50;;;1.40;;
61254;SDS011;47128;47.530;8.584;2022-08-03T16:14:10;2.35;;;1.20;;
61254;SDS011;47128;47.530;8.584;2022-08-03T16:16:35;1.35;;;1.25;;
61254;SDS011;47128;47.530;8.584;2022-08-03T16:19:04;1.98;;;1.38;;
61254;SDS011;47128;47.530;8.584;2022-08-03T16:21:30;2.92;;;1.27;;
61254;SDS011;47128;47.530;8.584;2022-08-03T16:23:56;1.88;;;1.13;;